Bowlegs, Oklahoma
Current Conditions -  °F | °C
As of 6:35 AM on Sunday 23 Nov 2014 (Local Time) from KSNL Reporting Station
Overcast Overcast  
Wind Chill: 59°   Ceiling: 1000
Heat Index: 59°   Visibility: 10mi
Dew Point: 59°   Wind: 9mph
Humidity: 100%   Direction: 170°S
Pressure: 29.52"   Gusts: NA
Location:  35.15°N, 96.67°W
Report Text: KSNL 231235Z AUTO 17008KT 10SM OVC010 15/15 A2952 RMK AO2
Loading
Personal Weather Stations






























Interactive Weather Map New forecast layout! Learn more

10-Day Weather Forecast

Advertisements
Track Severe Weather on mobile